MSC Barbara — HODU — position and weather

sailwx.info

Track history (hours):
 
Tides and Currents Weather Stations Pressure Air Temp Water Temp Dewpoint Dewpoint Depression Visibility Wind Speed Wind Dir Waves Ship Positions

MSC Barbara

Last reported at 2014-Oct-17 03:16 UTC. Time now 2014-Oct-26 01:54 UTC.
Position N 37°23' W 009°28'.
Warning: this ship's position is 8 days out of date.

Length 303 m; draft 13.8 m.

Type: Ship (hazmat cat D). MMSI: 353775000.

Date/timePositionNaut miles runAvg speedWind from/ knotsBaromVisibWave heightAir tempDewpointWater temp
2014-Oct-17 03:16N 37°23' W 009°28'1318.3
2014-Oct-17 02:33N 37°33' W 009°16'1818.2
2014-Oct-17 01:33N 37°45' W 008°60'1312.9
2014-Oct-17 00:33N 37°56' W 008°51'0 0.2
2014-Oct-16 23:32N 37°56' W 008°51'0 0.0
2014-Oct-16 22:31N 37°56' W 008°51'0 0.0
2014-Oct-16 21:31N 37°56' W 008°51'0 0.0
2014-Oct-16 20:31N 37°56' W 008°51'0 0.0
2014-Oct-16 19:33N 37°56' W 008°51'0 0.0
2014-Oct-16 18:33N 37°56' W 008°51'0 0.0
2014-Oct-16 17:32N 37°56' W 008°51'0 0.0
2014-Oct-16 16:32N 37°56' W 008°51'0 0.0
2014-Oct-16 15:31N 37°56' W 008°51'0 0.0
2014-Oct-16 14:31N 37°56' W 008°51'0 0.0
2014-Oct-16 13:30N 37°56' W 008°51'0 0.0
2014-Oct-16 12:33N 37°56' W 008°51'0 0.0
2014-Oct-16 11:33N 37°56' W 008°51'0 0.0
2014-Oct-16 10:32N 37°56' W 008°51'0 0.0
2014-Oct-16 09:32N 37°56' W 008°51'0 0.0
2014-Oct-16 08:31N 37°56' W 008°51'0 0.0
2014-Oct-16 07:31N 37°56' W 008°51'0 0.0
2014-Oct-16 06:31N 37°56' W 008°51'2 1.6
2014-Oct-16 05:33N 37°54' W 008°50'3 3.1
2014-Oct-16 04:33N 37°52' W 008°52'0 0.3
2014-Oct-16 03:33N 37°52' W 008°53'0 0.5
2014-Oct-16 02:33N 37°51' W 008°53'7 6.8
2014-Oct-16 01:33N 37°52' W 009°02'1716.8
2014-Oct-16 00:33N 38°03' W 009°18'79115.8
2014-Oct-13 22:33N 49°38' W 000°33'1616.6
2014-Oct-13 21:33N 49°32' W 000°09'1212.0
2014-Oct-13 20:33N 49°28' E 000°08'0 0.4
2014-Oct-13 19:33N 49°28' E 000°08'0 0.0
2014-Oct-13 18:33N 49°28' E 000°08'0 0.0
2014-Oct-13 17:32N 49°28' E 000°08'0 0.0
2014-Oct-13 16:32N 49°28' E 000°08'0 0.0
2014-Oct-13 15:31N 49°28' E 000°08'0 0.0
2014-Oct-13 14:31N 49°28' E 000°08'0 0.0
2014-Oct-13 13:31N 49°28' E 000°08'0 0.0
2014-Oct-13 12:33N 49°28' E 000°08'0 0.0
2014-Oct-13 11:33N 49°28' E 000°08'0 0.0
2014-Oct-13 10:32N 49°28' E 000°08'0 0.0
2014-Oct-13 09:32N 49°28' E 000°08'0 0.0
2014-Oct-13 08:31N 49°28' E 000°08'0 0.0
2014-Oct-13 07:31N 49°28' E 000°08'0 0.0
2014-Oct-13 06:34N 49°28' E 000°08'0 0.0
2014-Oct-13 05:33N 49°28' E 000°08'0 0.0
2014-Oct-13 04:33N 49°28' E 000°08'0 0.0
2014-Oct-13 03:33N 49°28' E 000°08'2 2.2
2014-Oct-13 02:34N 49°29' E 000°05'1110.9
2014-Oct-13 01:33N 49°32' W 000°11'4 4.2
2014-Oct-13 00:33N 49°36' W 000°13'2 1.6
2014-Oct-12 23:32N 49°37' W 000°15'0 0.0
2014-Oct-12 22:32N 49°37' W 000°15'0 0.0
2014-Oct-12 21:28N 49°37' W 000°15'0 0.1
2014-Oct-12 20:31N 49°37' W 000°15'0 0.0
2014-Oct-12 19:31N 49°37' W 000°15'0 0.0
2014-Oct-12 18:33N 49°37' W 000°15'0 0.0
2014-Oct-12 17:33N 49°37' W 000°15'0 0.0
2014-Oct-12 16:32N 49°37' W 000°15'0 0.0
2014-Oct-12 15:32N 49°37' W 000°15'0 0.0
2014-Oct-12 14:31N 49°37' W 000°15'0 0.0
2014-Oct-12 13:31N 49°37' W 000°15'0 0.0
2014-Oct-12 12:31N 49°37' W 000°15'0 0.2
2014-Oct-12 11:33N 49°37' W 000°15'0 0.1
2014-Oct-12 10:33N 49°37' W 000°15'0 0.0
2014-Oct-12 09:29N 49°37' W 000°15'0 0.1
2014-Oct-12 08:29N 49°37' W 000°15'0 0.0
2014-Oct-12 07:28N 49°37' W 000°15'0 0.0
2014-Oct-12 06:31N 49°37' W 000°15'0 0.0
2014-Oct-12 05:28N 49°37' W 000°15'0 0.0
2014-Oct-12 04:33N 49°37' W 000°15'0 0.0
2014-Oct-12 03:33N 49°37' W 000°15'0 0.0
2014-Oct-12 02:31N 49°37' W 000°15'0 0.0
2014-Oct-12 01:32N 49°37' W 000°15'0 0.0
2014-Oct-12 00:31N 49°37' W 000°15'1 0.9
2014-Oct-11 23:33N 49°38' W 000°15'8 8.3
2014-Oct-11 22:33N 49°46' W 000°11'51 8.4
2014-Oct-11 16:31N 50°32' E 000°21'1212.7
2014-Oct-11 15:33N 50°37' E 000°38'1211.9
2014-Oct-11 14:33N 50°44' E 000°54'2110.2
2014-Oct-11 12:29N 50°57' E 001°21'1212.9
2014-Oct-11 11:33N 51°06' E 001°33'1615.5
2014-Oct-11 10:33N 51°17' E 001°50'1212.0
2014-Oct-11 09:33N 51°22' E 002°07'1514.7
2014-Oct-11 08:33N 51°23' E 002°31'1413.9
2014-Oct-11 07:33N 51°23' E 002°53'1717.2
2014-Oct-11 06:33N 51°24' E 003°21'1413.8
2014-Oct-11 05:33N 51°24' E 003°43'1212.0
2014-Oct-11 04:34N 51°25' E 004°02'1010.1
2014-Oct-11 03:34N 51°21' E 004°16'1 0.5
2014-Oct-11 02:34N 51°21' E 004°17'1 0.5
2014-Oct-11 01:33N 51°21' E 004°18'2 1.4
2014-Oct-11 00:29N 51°19' E 004°19'0 0.0
2014-Oct-10 23:32N 51°19' E 004°19'0 0.0
2014-Oct-10 22:28N 51°19' E 004°19'0 0.0
2014-Oct-10 21:31N 51°19' E 004°19'0 0.0
2014-Oct-10 20:33N 51°19' E 004°19'0 0.0
2014-Oct-10 19:33N 51°19' E 004°19'0 0.0
2014-Oct-10 18:32N 51°19' E 004°19'0 0.0
2014-Oct-10 17:32N 51°19' E 004°19'0 0.0
2014-Oct-10 16:32N 51°19' E 004°19'0 0.0
2014-Oct-10 15:28N 51°19' E 004°19'0 0.0
2014-Oct-10 14:27N 51°19' E 004°19'0 0.0
2014-Oct-10 13:33N 51°19' E 004°19'0 0.0
2014-Oct-10 12:30N 51°19' E 004°19'0 0.0
2014-Oct-10 11:32N 51°19' E 004°19'0 0.0
2014-Oct-10 10:32N 51°19' E 004°19'0 0.0
2014-Oct-10 09:28N 51°19' E 004°19'0 0.0
2014-Oct-10 08:31N 51°19' E 004°19'0 0.0
2014-Oct-10 07:31N 51°19' E 004°19'0 0.0
2014-Oct-10 06:33N 51°19' E 004°19'0 0.0
2014-Oct-10 05:30N 51°19' E 004°19'0 0.0
2014-Oct-10 04:32N 51°19' E 004°19'0 0.0
2014-Oct-10 03:32N 51°19' E 004°19'0 0.0
2014-Oct-10 02:31N 51°19' E 004°19'0 0.0
2014-Oct-10 01:28N 51°19' E 004°19'0 0.0
2014-Oct-10 00:25N 51°19' E 004°19'0 0.0
2014-Oct-09 23:33N 51°19' E 004°19'0 0.0
2014-Oct-09 22:33N 51°19' E 004°19'0 0.0
2014-Oct-09 21:32N 51°19' E 004°19'0 0.0
2014-Oct-09 20:29N 51°19' E 004°19'0 0.0
2014-Oct-09 19:31N 51°19' E 004°19'0 0.0
2014-Oct-09 18:31N 51°19' E 004°19'0 0.0
2014-Oct-09 17:31N 51°19' E 004°19'0 0.0
2014-Oct-09 16:33N 51°19' E 004°19'0 0.0
2014-Oct-09 15:33N 51°19' E 004°19'0 0.0
2014-Oct-09 14:32N 51°19' E 004°19'0 0.0
2014-Oct-09 13:32N 51°19' E 004°19'0 0.0
2014-Oct-09 12:13N 51°19' E 004°19'0 0.0
2014-Oct-09 11:31N 51°19' E 004°19'0 0.0
2014-Oct-09 10:28N 51°19' E 004°19'0 0.0
2014-Oct-09 09:33N 51°19' E 004°19'2 1.7
2014-Oct-09 08:33N 51°21' E 004°17'0 0.3
2014-Oct-09 07:34N 51°21' E 004°17'6 6.1
2014-Oct-09 06:34N 51°22' E 004°07'7 6.8
2014-Oct-09 05:33N 51°23' E 003°56'9 9.3
2014-Oct-09 04:34N 51°25' E 003°42'8 7.7
2014-Oct-09 03:33N 51°25' E 003°30'1212.1
2014-Oct-09 02:32N 51°24' E 003°10'1616.0
2014-Oct-09 01:33N 51°22' E 002°45'10 9.4
2014-Oct-09 00:29N 51°22' E 002°29'1112.0
2014-Oct-08 23:32N 51°19' E 002°12'1212.5
2014-Oct-08 22:33N 51°26' E 001°56'1312.9
2014-Oct-08 21:33N 51°38' E 001°46'1110.9
2014-Oct-08 20:33N 51°49' E 001°44'1010.2
2014-Oct-08 19:33N 51°44' E 001°29'1717.2
2014-Oct-08 18:33N 51°33' E 001°08'1817.9
2014-Oct-08 17:33N 51°30' E 000°40'6 6.0
2014-Oct-08 16:31N 51°30' E 000°30'0 0.0
2014-Oct-08 15:31N 51°30' E 000°30'0 0.0
2014-Oct-08 14:33N 51°30' E 000°30'0 0.0
2014-Oct-08 13:33N 51°30' E 000°30'0 0.0
2014-Oct-08 12:32N 51°30' E 000°30'0 0.0
2014-Oct-08 11:32N 51°30' E 000°30'0 0.0
2014-Oct-08 10:32N 51°30' E 000°30'0 0.0
2014-Oct-08 09:31N 51°30' E 000°30'0 0.0
2014-Oct-08 08:31N 51°30' E 000°30'0 0.0
2014-Oct-08 07:33N 51°30' E 000°30'0 0.0
2014-Oct-08 06:33N 51°30' E 000°30'0 0.0
2014-Oct-08 05:32N 51°30' E 000°30'1 1.5
2014-Oct-08 04:33N 51°30' E 000°32'1111.3
2014-Oct-08 03:33N 51°29' E 000°50'1514.7
2014-Oct-08 02:34N 51°34' E 001°13'1515.5
2014-Oct-08 01:34N 51°45' E 001°31'10 9.9
2014-Oct-08 00:34N 51°52' E 001°42'10 9.8
2014-Oct-07 23:34N 51°51' E 001°58'6516.1
2014-Oct-07 19:33N 52°03' E 003°42'1010.6
2014-Oct-07 18:34N 52°01' E 003°58'5 4.8
2014-Oct-07 17:31N 51°58' E 004°04'0 0.0
2014-Oct-07 16:33N 51°58' E 004°04'0 0.0
2014-Oct-07 15:33N 51°58' E 004°04'0 0.0
2014-Oct-07 14:32N 51°58' E 004°04'0 0.0
2014-Oct-07 13:32N 51°58' E 004°04'0 0.0
2014-Oct-07 12:28N 51°58' E 004°04'0 0.0
2014-Oct-07 11:31N 51°58' E 004°04'0 0.0
2014-Oct-07 10:31N 51°58' E 004°04'0 0.0
2014-Oct-07 09:33N 51°58' E 004°04'0 0.0
2014-Oct-07 08:33N 51°58' E 004°04'0 0.0
2014-Oct-07 07:32N 51°58' E 004°04'0 0.0
2014-Oct-07 06:32N 51°58' E 004°04'0 0.0
2014-Oct-07 05:31N 51°58' E 004°04'0 0.0
2014-Oct-07 04:31N 51°58' E 004°04'0 0.0
2014-Oct-07 03:34N 51°58' E 004°04'  
Track history (hours):
 
Tides and Currents Weather Stations Pressure Air Temp Water Temp Dewpoint Dewpoint Depression Visibility Wind Speed Wind Dir Waves Ship Positions

MSC Barbara

Last reported at 2014-Oct-17 03:16 UTC. Time now 2014-Oct-26 01:54 UTC.
Position N 37°23' W 009°28'.
Warning: this ship's position is 8 days out of date.

Length 303 m; draft 13.8 m.

Type: Ship (hazmat cat D). MMSI: 353775000.

Date/timePositionNaut miles runAvg speedWind from/ knotsBaromVisibWave heightAir tempDewpointWater temp
2014-Oct-17 03:16N 37°23' W 009°28'1318.3
2014-Oct-17 02:33N 37°33' W 009°16'1818.2
2014-Oct-17 01:33N 37°45' W 008°60'1312.9
2014-Oct-17 00:33N 37°56' W 008°51'0 0.2
2014-Oct-16 23:32N 37°56' W 008°51'0 0.0
2014-Oct-16 22:31N 37°56' W 008°51'0 0.0
2014-Oct-16 21:31N 37°56' W 008°51'0 0.0
2014-Oct-16 20:31N 37°56' W 008°51'0 0.0
2014-Oct-16 19:33N 37°56' W 008°51'0 0.0
2014-Oct-16 18:33N 37°56' W 008°51'0 0.0
2014-Oct-16 17:32N 37°56' W 008°51'0 0.0
2014-Oct-16 16:32N 37°56' W 008°51'0 0.0
2014-Oct-16 15:31N 37°56' W 008°51'0 0.0
2014-Oct-16 14:31N 37°56' W 008°51'0 0.0
2014-Oct-16 13:30N 37°56' W 008°51'0 0.0
2014-Oct-16 12:33N 37°56' W 008°51'0 0.0
2014-Oct-16 11:33N 37°56' W 008°51'0 0.0
2014-Oct-16 10:32N 37°56' W 008°51'0 0.0
2014-Oct-16 09:32N 37°56' W 008°51'0 0.0
2014-Oct-16 08:31N 37°56' W 008°51'0 0.0
2014-Oct-16 07:31N 37°56' W 008°51'0 0.0
2014-Oct-16 06:31N 37°56' W 008°51'2 1.6
2014-Oct-16 05:33N 37°54' W 008°50'3 3.1
2014-Oct-16 04:33N 37°52' W 008°52'0 0.3
2014-Oct-16 03:33N 37°52' W 008°53'0 0.5
2014-Oct-16 02:33N 37°51' W 008°53'7 6.8
2014-Oct-16 01:33N 37°52' W 009°02'1716.8
2014-Oct-16 00:33N 38°03' W 009°18'79115.8
2014-Oct-13 22:33N 49°38' W 000°33'1616.6
2014-Oct-13 21:33N 49°32' W 000°09'1212.0
2014-Oct-13 20:33N 49°28' E 000°08'0 0.4
2014-Oct-13 19:33N 49°28' E 000°08'0 0.0
2014-Oct-13 18:33N 49°28' E 000°08'0 0.0
2014-Oct-13 17:32N 49°28' E 000°08'0 0.0
2014-Oct-13 16:32N 49°28' E 000°08'0 0.0
2014-Oct-13 15:31N 49°28' E 000°08'0 0.0
2014-Oct-13 14:31N 49°28' E 000°08'0 0.0
2014-Oct-13 13:31N 49°28' E 000°08'0 0.0
2014-Oct-13 12:33N 49°28' E 000°08'0 0.0
2014-Oct-13 11:33N 49°28' E 000°08'0 0.0
2014-Oct-13 10:32N 49°28' E 000°08'0 0.0
2014-Oct-13 09:32N 49°28' E 000°08'0 0.0
2014-Oct-13 08:31N 49°28' E 000°08'0 0.0
2014-Oct-13 07:31N 49°28' E 000°08'0 0.0
2014-Oct-13 06:34N 49°28' E 000°08'0 0.0
2014-Oct-13 05:33N 49°28' E 000°08'0 0.0
2014-Oct-13 04:33N 49°28' E 000°08'0 0.0
2014-Oct-13 03:33N 49°28' E 000°08'2 2.2
2014-Oct-13 02:34N 49°29' E 000°05'1110.9
2014-Oct-13 01:33N 49°32' W 000°11'4 4.2
2014-Oct-13 00:33N 49°36' W 000°13'2 1.6
2014-Oct-12 23:32N 49°37' W 000°15'0 0.0
2014-Oct-12 22:32N 49°37' W 000°15'0 0.0
2014-Oct-12 21:28N 49°37' W 000°15'0 0.1
2014-Oct-12 20:31N 49°37' W 000°15'0 0.0
2014-Oct-12 19:31N 49°37' W 000°15'0 0.0
2014-Oct-12 18:33N 49°37' W 000°15'0 0.0
2014-Oct-12 17:33N 49°37' W 000°15'0 0.0
2014-Oct-12 16:32N 49°37' W 000°15'0 0.0
2014-Oct-12 15:32N 49°37' W 000°15'0 0.0
2014-Oct-12 14:31N 49°37' W 000°15'0 0.0
2014-Oct-12 13:31N 49°37' W 000°15'0 0.0
2014-Oct-12 12:31N 49°37' W 000°15'0 0.2
2014-Oct-12 11:33N 49°37' W 000°15'0 0.1
2014-Oct-12 10:33N 49°37' W 000°15'0 0.0
2014-Oct-12 09:29N 49°37' W 000°15'0 0.1
2014-Oct-12 08:29N 49°37' W 000°15'0 0.0
2014-Oct-12 07:28N 49°37' W 000°15'0 0.0
2014-Oct-12 06:31N 49°37' W 000°15'0 0.0
2014-Oct-12 05:28N 49°37' W 000°15'0 0.0
2014-Oct-12 04:33N 49°37' W 000°15'0 0.0
2014-Oct-12 03:33N 49°37' W 000°15'0 0.0
2014-Oct-12 02:31N 49°37' W 000°15'0 0.0
2014-Oct-12 01:32N 49°37' W 000°15'0 0.0
2014-Oct-12 00:31N 49°37' W 000°15'1 0.9
2014-Oct-11 23:33N 49°38' W 000°15'8 8.3
2014-Oct-11 22:33N 49°46' W 000°11'51 8.4
2014-Oct-11 16:31N 50°32' E 000°21'1212.7
2014-Oct-11 15:33N 50°37' E 000°38'1211.9
2014-Oct-11 14:33N 50°44' E 000°54'2110.2
2014-Oct-11 12:29N 50°57' E 001°21'1212.9
2014-Oct-11 11:33N 51°06' E 001°33'1615.5
2014-Oct-11 10:33N 51°17' E 001°50'1212.0
2014-Oct-11 09:33N 51°22' E 002°07'1514.7
2014-Oct-11 08:33N 51°23' E 002°31'1413.9
2014-Oct-11 07:33N 51°23' E 002°53'1717.2
2014-Oct-11 06:33N 51°24' E 003°21'1413.8
2014-Oct-11 05:33N 51°24' E 003°43'1212.0
2014-Oct-11 04:34N 51°25' E 004°02'1010.1
2014-Oct-11 03:34N 51°21' E 004°16'1 0.5
2014-Oct-11 02:34N 51°21' E 004°17'1 0.5
2014-Oct-11 01:33N 51°21' E 004°18'2 1.4
2014-Oct-11 00:29N 51°19' E 004°19'0 0.0
2014-Oct-10 23:32N 51°19' E 004°19'0 0.0
2014-Oct-10 22:28N 51°19' E 004°19'0 0.0
2014-Oct-10 21:31N 51°19' E 004°19'0 0.0
2014-Oct-10 20:33N 51°19' E 004°19'0 0.0
2014-Oct-10 19:33N 51°19' E 004°19'0 0.0
2014-Oct-10 18:32N 51°19' E 004°19'0 0.0
2014-Oct-10 17:32N 51°19' E 004°19'0 0.0
2014-Oct-10 16:32N 51°19' E 004°19'0 0.0
2014-Oct-10 15:28N 51°19' E 004°19'0 0.0
2014-Oct-10 14:27N 51°19' E 004°19'0 0.0
2014-Oct-10 13:33N 51°19' E 004°19'0 0.0
2014-Oct-10 12:30N 51°19' E 004°19'0 0.0
2014-Oct-10 11:32N 51°19' E 004°19'0 0.0
2014-Oct-10 10:32N 51°19' E 004°19'0 0.0
2014-Oct-10 09:28N 51°19' E 004°19'0 0.0
2014-Oct-10 08:31N 51°19' E 004°19'0 0.0
2014-Oct-10 07:31N 51°19' E 004°19'0 0.0
2014-Oct-10 06:33N 51°19' E 004°19'0 0.0
2014-Oct-10 05:30N 51°19' E 004°19'0 0.0
2014-Oct-10 04:32N 51°19' E 004°19'0 0.0
2014-Oct-10 03:32N 51°19' E 004°19'0 0.0
2014-Oct-10 02:31N 51°19' E 004°19'0 0.0
2014-Oct-10 01:28N 51°19' E 004°19'0 0.0
2014-Oct-10 00:25N 51°19' E 004°19'0 0.0
2014-Oct-09 23:33N 51°19' E 004°19'0 0.0
2014-Oct-09 22:33N 51°19' E 004°19'0 0.0
2014-Oct-09 21:32N 51°19' E 004°19'0 0.0
2014-Oct-09 20:29N 51°19' E 004°19'0 0.0
2014-Oct-09 19:31N 51°19' E 004°19'0 0.0
2014-Oct-09 18:31N 51°19' E 004°19'0 0.0
2014-Oct-09 17:31N 51°19' E 004°19'0 0.0
2014-Oct-09 16:33N 51°19' E 004°19'0 0.0
2014-Oct-09 15:33N 51°19' E 004°19'0 0.0
2014-Oct-09 14:32N 51°19' E 004°19'0 0.0
2014-Oct-09 13:32N 51°19' E 004°19'0 0.0
2014-Oct-09 12:13N 51°19' E 004°19'0 0.0
2014-Oct-09 11:31N 51°19' E 004°19'0 0.0
2014-Oct-09 10:28N 51°19' E 004°19'0 0.0
2014-Oct-09 09:33N 51°19' E 004°19'2 1.7
2014-Oct-09 08:33N 51°21' E 004°17'0 0.3
2014-Oct-09 07:34N 51°21' E 004°17'6 6.1
2014-Oct-09 06:34N 51°22' E 004°07'7 6.8
2014-Oct-09 05:33N 51°23' E 003°56'9 9.3
2014-Oct-09 04:34N 51°25' E 003°42'8 7.7
2014-Oct-09 03:33N 51°25' E 003°30'1212.1
2014-Oct-09 02:32N 51°24' E 003°10'1616.0
2014-Oct-09 01:33N 51°22' E 002°45'10 9.4
2014-Oct-09 00:29N 51°22' E 002°29'1112.0
2014-Oct-08 23:32N 51°19' E 002°12'1212.5
2014-Oct-08 22:33N 51°26' E 001°56'1312.9
2014-Oct-08 21:33N 51°38' E 001°46'1110.9
2014-Oct-08 20:33N 51°49' E 001°44'1010.2
2014-Oct-08 19:33N 51°44' E 001°29'1717.2
2014-Oct-08 18:33N 51°33' E 001°08'1817.9
2014-Oct-08 17:33N 51°30' E 000°40'6 6.0
2014-Oct-08 16:31N 51°30' E 000°30'0 0.0
2014-Oct-08 15:31N 51°30' E 000°30'0 0.0
2014-Oct-08 14:33N 51°30' E 000°30'0 0.0
2014-Oct-08 13:33N 51°30' E 000°30'0 0.0
2014-Oct-08 12:32N 51°30' E 000°30'0 0.0
2014-Oct-08 11:32N 51°30' E 000°30'0 0.0
2014-Oct-08 10:32N 51°30' E 000°30'0 0.0
2014-Oct-08 09:31N 51°30' E 000°30'0 0.0
2014-Oct-08 08:31N 51°30' E 000°30'0 0.0
2014-Oct-08 07:33N 51°30' E 000°30'0 0.0
2014-Oct-08 06:33N 51°30' E 000°30'0 0.0
2014-Oct-08 05:32N 51°30' E 000°30'1 1.5
2014-Oct-08 04:33N 51°30' E 000°32'1111.3
2014-Oct-08 03:33N 51°29' E 000°50'1514.7
2014-Oct-08 02:34N 51°34' E 001°13'1515.5
2014-Oct-08 01:34N 51°45' E 001°31'10 9.9
2014-Oct-08 00:34N 51°52' E 001°42'10 9.8
2014-Oct-07 23:34N 51°51' E 001°58'6516.1
2014-Oct-07 19:33N 52°03' E 003°42'1010.6
2014-Oct-07 18:34N 52°01' E 003°58'5 4.8
2014-Oct-07 17:31N 51°58' E 004°04'0 0.0
2014-Oct-07 16:33N 51°58' E 004°04'0 0.0
2014-Oct-07 15:33N 51°58' E 004°04'0 0.0
2014-Oct-07 14:32N 51°58' E 004°04'0 0.0
2014-Oct-07 13:32N 51°58' E 004°04'0 0.0
2014-Oct-07 12:28N 51°58' E 004°04'0 0.0
2014-Oct-07 11:31N 51°58' E 004°04'0 0.0
2014-Oct-07 10:31N 51°58' E 004°04'0 0.0
2014-Oct-07 09:33N 51°58' E 004°04'0 0.0
2014-Oct-07 08:33N 51°58' E 004°04'0 0.0
2014-Oct-07 07:32N 51°58' E 004°04'0 0.0
2014-Oct-07 06:32N 51°58' E 004°04'0 0.0
2014-Oct-07 05:31N 51°58' E 004°04'0 0.0
2014-Oct-07 04:31N 51°58' E 004°04'0 0.0
2014-Oct-07 03:34N 51°58' E 004°04'  

Dump ship's entire track history